sensor_id;sensor_type;location;lat;lon;timestamp;temperature;humidity
25945;SHT31;13742;49.306;8.636;2023-04-07T00:00:40;8.61;81.34
25945;SHT31;13742;49.306;8.636;2023-04-07T00:01:40;8.62;82.03
25945;SHT31;13742;49.306;8.636;2023-04-07T00:02:41;8.62;81.42
25945;SHT31;13742;49.306;8.636;2023-04-07T00:03:40;8.65;81.76
25945;SHT31;13742;49.306;8.636;2023-04-07T00:04:40;8.64;81.56
25945;SHT31;13742;49.306;8.636;2023-04-07T00:05:40;8.65;81.53
25945;SHT31;13742;49.306;8.636;2023-04-07T00:06:40;8.64;81.34
25945;SHT31;13742;49.306;8.636;2023-04-07T00:07:40;8.65;82.10
25945;SHT31;13742;49.306;8.636;2023-04-07T00:08:40;8.68;82.31
25945;SHT31;13742;49.306;8.636;2023-04-07T00:09:40;8.61;82.21
25945;SHT31;13742;49.306;8.636;2023-04-07T00:10:40;8.65;82.29
25945;SHT31;13742;49.306;8.636;2023-04-07T00:11:40;8.64;82.42
25945;SHT31;13742;49.306;8.636;2023-04-07T00:12:40;8.62;82.76
25945;SHT31;13742;49.306;8.636;2023-04-07T00:13:40;8.64;82.60
25945;SHT31;13742;49.306;8.636;2023-04-07T00:14:40;8.64;82.56
25945;SHT31;13742;49.306;8.636;2023-04-07T00:15:40;8.65;82.61
25945;SHT31;13742;49.306;8.636;2023-04-07T00:16:40;8.61;82.72
25945;SHT31;13742;49.306;8.636;2023-04-07T00:17:40;8.62;82.62
25945;SHT31;13742;49.306;8.636;2023-04-07T00:18:40;8.64;82.48
25945;SHT31;13742;49.306;8.636;2023-04-07T00:19:40;8.62;82.15
25945;SHT31;13742;49.306;8.636;2023-04-07T00:20:40;8.59;82.32
25945;SHT31;13742;49.306;8.636;2023-04-07T00:21:40;8.61;82.41
25945;SHT31;13742;49.306;8.636;2023-04-07T00:22:40;8.62;82.71
25945;SHT31;13742;49.306;8.636;2023-04-07T00:23:40;8.62;82.65
25945;SHT31;13742;49.306;8.636;2023-04-07T00:24:40;8.54;82.50
25945;SHT31;13742;49.306;8.636;2023-04-07T00:25:40;8.54;82.91
25945;SHT31;13742;49.306;8.636;2023-04-07T00:26:40;8.55;82.11
25945;SHT31;13742;49.306;8.636;2023-04-07T00:27:40;8.51;82.54
25945;SHT31;13742;49.306;8.636;2023-04-07T00:28:40;8.52;82.79
25945;SHT31;13742;49.306;8.636;2023-04-07T00:29:40;8.56;82.83
25945;SHT31;13742;49.306;8.636;2023-04-07T00:30:40;8.54;82.61
25945;SHT31;13742;49.306;8.636;2023-04-07T00:31:40;8.54;82.59
25945;SHT31;13742;49.306;8.636;2023-04-07T00:32:40;8.52;82.79
25945;SHT31;13742;49.306;8.636;2023-04-07T00:33:40;8.49;83.04
25945;SHT31;13742;49.306;8.636;2023-04-07T00:34:40;8.49;82.83
25945;SHT31;13742;49.306;8.636;2023-04-07T00:35:40;8.49;83.07
25945;SHT31;13742;49.306;8.636;2023-04-07T00:36:40;8.51;83.29
25945;SHT31;13742;49.306;8.636;2023-04-07T00:37:40;8.54;83.47
25945;SHT31;13742;49.306;8.636;2023-04-07T00:38:40;8.52;83.13
25945;SHT31;13742;49.306;8.636;2023-04-07T00:39:40;8.51;82.81
25945;SHT31;13742;49.306;8.636;2023-04-07T00:40:40;8.51;82.91
25945;SHT31;13742;49.306;8.636;2023-04-07T00:41:40;8.49;82.55
25945;SHT31;13742;49.306;8.636;2023-04-07T00:42:40;8.52;83.06
25945;SHT31;13742;49.306;8.636;2023-04-07T00:43:40;8.52;82.73
25945;SHT31;13742;49.306;8.636;2023-04-07T00:44:40;8.52;82.92
25945;SHT31;13742;49.306;8.636;2023-04-07T00:45:40;8.48;83.29
25945;SHT31;13742;49.306;8.636;2023-04-07T00:46:40;8.49;83.37
25945;SHT31;13742;49.306;8.636;2023-04-07T00:47:40;8.47;83.00
25945;SHT31;13742;49.306;8.636;2023-04-07T00:48:40;8.48;83.44
25945;SHT31;13742;49.306;8.636;2023-04-07T00:49:40;8.51;83.63
25945;SHT31;13742;49.306;8.636;2023-04-07T00:50:40;8.54;83.30
25945;SHT31;13742;49.306;8.636;2023-04-07T00:51:40;8.52;83.32
25945;SHT31;13742;49.306;8.636;2023-04-07T00:52:40;8.48;83.13
25945;SHT31;13742;49.306;8.636;2023-04-07T00:53:40;8.51;83.16
25945;SHT31;13742;49.306;8.636;2023-04-07T00:54:41;8.47;83.08
25945;SHT31;13742;49.306;8.636;2023-04-07T00:55:40;8.49;83.10
25945;SHT31;13742;49.306;8.636;2023-04-07T00:56:40;8.47;83.10
25945;SHT31;13742;49.306;8.636;2023-04-07T00:57:40;8.44;83.41
25945;SHT31;13742;49.306;8.636;2023-04-07T00:58:40;8.41;83.88
25945;SHT31;13742;49.306;8.636;2023-04-07T00:59:40;8.41;83.34
25945;SHT31;13742;49.306;8.636;2023-04-07T01:00:44;8.41;83.29
25945;SHT31;13742;49.306;8.636;2023-04-07T01:01:50;8.44;83.47
25945;SHT31;13742;49.306;8.636;2023-04-07T01:02:58;8.44;83.94
25945;SHT31;13742;49.306;8.636;2023-04-07T01:03:46;8.48;83.27
25945;SHT31;13742;49.306;8.636;2023-04-07T01:05:46;8.45;83.17
25945;SHT31;13742;49.306;8.636;2023-04-07T01:06:48;8.45;83.27
25945;SHT31;13742;49.306;8.636;2023-04-07T01:09:45;8.47;83.32
25945;SHT31;13742;49.306;8.636;2023-04-07T01:10:49;8.47;82.70
25945;SHT31;13742;49.306;8.636;2023-04-07T01:11:47;8.42;83.16
25945;SHT31;13742;49.306;8.636;2023-04-07T01:12:47;8.48;83.65
25945;SHT31;13742;49.306;8.636;2023-04-07T01:13:49;8.44;83.47
25945;SHT31;13742;49.306;8.636;2023-04-07T01:14:46;8.45;83.32
25945;SHT31;13742;49.306;8.636;2023-04-07T01:15:41;8.45;83.23
25945;SHT31;13742;49.306;8.636;2023-04-07T01:16:45;8.47;83.02
25945;SHT31;13742;49.306;8.636;2023-04-07T01:17:45;8.45;83.37
25945;SHT31;13742;49.306;8.636;2023-04-07T01:18:42;8.44;83.29
25945;SHT31;13742;49.306;8.636;2023-04-07T01:19:46;8.44;83.22
25945;SHT31;13742;49.306;8.636;2023-04-07T01:20:42;8.44;83.16
25945;SHT31;13742;49.306;8.636;2023-04-07T01:21:43;8.42;82.96
25945;SHT31;13742;49.306;8.636;2023-04-07T01:22:46;8.42;82.71
25945;SHT31;13742;49.306;8.636;2023-04-07T01:23:50;8.40;83.29
25945;SHT31;13742;49.306;8.636;2023-04-07T01:26:41;8.44;83.30
25945;SHT31;13742;49.306;8.636;2023-04-07T01:28:48;8.40;83.24
25945;SHT31;13742;49.306;8.636;2023-04-07T01:29:41;8.42;83.42
25945;SHT31;13742;49.306;8.636;2023-04-07T01:30:42;8.42;83.53
25945;SHT31;13742;49.306;8.636;2023-04-07T01:31:40;8.40;83.21
25945;SHT31;13742;49.306;8.636;2023-04-07T01:32:42;8.42;83.07
25945;SHT31;13742;49.306;8.636;2023-04-07T01:33:43;8.44;83.00
25945;SHT31;13742;49.306;8.636;2023-04-07T01:34:40;8.42;82.73
25945;SHT31;13742;49.306;8.636;2023-04-07T01:35:40;8.42;82.72
25945;SHT31;13742;49.306;8.636;2023-04-07T01:36:41;8.41;82.66
25945;SHT31;13742;49.306;8.636;2023-04-07T01:37:40;8.42;83.14
25945;SHT31;13742;49.306;8.636;2023-04-07T01:38:40;8.41;83.02
25945;SHT31;13742;49.306;8.636;2023-04-07T01:39:40;8.38;83.37
25945;SHT31;13742;49.306;8.636;2023-04-07T01:40:40;8.38;83.64
25945;SHT31;13742;49.306;8.636;2023-04-07T01:41:40;8.40;83.66
25945;SHT31;13742;49.306;8.636;2023-04-07T01:42:41;8.40;83.91
25945;SHT31;13742;49.306;8.636;2023-04-07T01:43:40;8.41;83.63
25945;SHT31;13742;49.306;8.636;2023-04-07T01:44:40;8.41;83.47
25945;SHT31;13742;49.306;8.636;2023-04-07T01:45:40;8.45;83.11
25945;SHT31;13742;49.306;8.636;2023-04-07T01:46:40;8.41;83.48
25945;SHT31;13742;49.306;8.636;2023-04-07T01:47:40;8.41;83.29
25945;SHT31;13742;49.306;8.636;2023-04-07T01:48:41;8.42;82.89
25945;SHT31;13742;49.306;8.636;2023-04-07T01:49:40;8.42;83.07
25945;SHT31;13742;49.306;8.636;2023-04-07T01:50:40;8.44;83.82
25945;SHT31;13742;49.306;8.636;2023-04-07T01:51:40;8.44;83.10
25945;SHT31;13742;49.306;8.636;2023-04-07T01:52:40;8.42;83.37
25945;SHT31;13742;49.306;8.636;2023-04-07T01:53:40;8.44;83.37
25945;SHT31;13742;49.306;8.636;2023-04-07T01:54:40;8.42;83.25
25945;SHT31;13742;49.306;8.636;2023-04-07T01:55:41;8.42;82.86
25945;SHT31;13742;49.306;8.636;2023-04-07T01:56:40;8.44;82.83
25945;SHT31;13742;49.306;8.636;2023-04-07T01:57:40;8.45;82.72
25945;SHT31;13742;49.306;8.636;2023-04-07T01:58:40;8.47;82.52
25945;SHT31;13742;49.306;8.636;2023-04-07T01:59:40;8.44;82.71
25945;SHT31;13742;49.306;8.636;2023-04-07T02:00:40;8.47;83.03
25945;SHT31;13742;49.306;8.636;2023-04-07T02:01:40;8.45;82.35
25945;SHT31;13742;49.306;8.636;2023-04-07T02:02:43;8.44;82.75
25945;SHT31;13742;49.306;8.636;2023-04-07T02:04:49;8.40;82.67
25945;SHT31;13742;49.306;8.636;2023-04-07T02:05:40;8.41;82.88
25945;SHT31;13742;49.306;8.636;2023-04-07T02:07:49;8.35;83.02
25945;SHT31;13742;49.306;8.636;2023-04-07T02:08:44;8.35;82.74
25945;SHT31;13742;49.306;8.636;2023-04-07T02:09:41;8.33;82.98
25945;SHT31;13742;49.306;8.636;2023-04-07T02:10:40;8.31;82.74
25945;SHT31;13742;49.306;8.636;2023-04-07T02:11:41;8.33;83.02
25945;SHT31;13742;49.306;8.636;2023-04-07T02:12:41;8.35;83.40
25945;SHT31;13742;49.306;8.636;2023-04-07T02:13:41;8.37;83.09
25945;SHT31;13742;49.306;8.636;2023-04-07T02:14:41;8.38;82.29
25945;SHT31;13742;49.306;8.636;2023-04-07T02:15:41;8.40;82.98
25945;SHT31;13742;49.306;8.636;2023-04-07T02:16:41;8.38;82.98
25945;SHT31;13742;49.306;8.636;2023-04-07T02:17:42;8.38;83.11
25945;SHT31;13742;49.306;8.636;2023-04-07T02:18:40;8.34;83.31
25945;SHT31;13742;49.306;8.636;2023-04-07T02:19:41;8.35;83.00
25945;SHT31;13742;49.306;8.636;2023-04-07T02:20:41;8.35;83.65
25945;SHT31;13742;49.306;8.636;2023-04-07T02:21:41;8.35;83.43
25945;SHT31;13742;49.306;8.636;2023-04-07T02:22:40;8.34;83.29
25945;SHT31;13742;49.306;8.636;2023-04-07T02:23:40;8.33;83.33
25945;SHT31;13742;49.306;8.636;2023-04-07T02:24:40;8.33;83.51
25945;SHT31;13742;49.306;8.636;2023-04-07T02:25:40;8.37;83.21
25945;SHT31;13742;49.306;8.636;2023-04-07T02:26:41;8.35;83.08
25945;SHT31;13742;49.306;8.636;2023-04-07T02:27:40;8.37;83.04
25945;SHT31;13742;49.306;8.636;2023-04-07T02:28:40;8.35;83.49
25945;SHT31;13742;49.306;8.636;2023-04-07T02:29:40;8.31;83.52
25945;SHT31;13742;49.306;8.636;2023-04-07T02:30:40;8.34;83.58
25945;SHT31;13742;49.306;8.636;2023-04-07T02:31:40;8.33;83.35
25945;SHT31;13742;49.306;8.636;2023-04-07T02:32:40;8.34;83.31
25945;SHT31;13742;49.306;8.636;2023-04-07T02:33:40;8.34;83.46
25945;SHT31;13742;49.306;8.636;2023-04-07T02:34:40;8.34;83.14
25945;SHT31;13742;49.306;8.636;2023-04-07T02:35:40;8.31;82.91
25945;SHT31;13742;49.306;8.636;2023-04-07T02:36:40;8.31;83.60
25945;SHT31;13742;49.306;8.636;2023-04-07T02:37:40;8.31;83.62
25945;SHT31;13742;49.306;8.636;2023-04-07T02:38:40;8.34;83.83
25945;SHT31;13742;49.306;8.636;2023-04-07T02:39:39;8.33;83.42
25945;SHT31;13742;49.306;8.636;2023-04-07T02:40:40;8.30;83.59
25945;SHT31;13742;49.306;8.636;2023-04-07T02:41:40;8.30;83.17
25945;SHT31;13742;49.306;8.636;2023-04-07T02:42:40;8.24;83.09
25945;SHT31;13742;49.306;8.636;2023-04-07T02:43:40;8.27;82.94
25945;SHT31;13742;49.306;8.636;2023-04-07T02:44:39;8.25;83.26
25945;SHT31;13742;49.306;8.636;2023-04-07T02:45:39;8.24;82.73
25945;SHT31;13742;49.306;8.636;2023-04-07T02:46:40;8.23;82.88
25945;SHT31;13742;49.306;8.636;2023-04-07T02:47:39;8.23;82.82
25945;SHT31;13742;49.306;8.636;2023-04-07T02:48:40;8.23;82.99
25945;SHT31;13742;49.306;8.636;2023-04-07T02:49:39;8.23;83.37
25945;SHT31;13742;49.306;8.636;2023-04-07T02:50:41;8.23;83.72
25945;SHT31;13742;49.306;8.636;2023-04-07T02:51:40;8.21;83.63
25945;SHT31;13742;49.306;8.636;2023-04-07T02:52:40;8.23;83.41
25945;SHT31;13742;49.306;8.636;2023-04-07T02:53:39;8.24;83.69
25945;SHT31;13742;49.306;8.636;2023-04-07T02:54:40;8.24;83.72
25945;SHT31;13742;49.306;8.636;2023-04-07T02:55:40;8.25;83.64
25945;SHT31;13742;49.306;8.636;2023-04-07T02:56:39;8.25;83.83
25945;SHT31;13742;49.306;8.636;2023-04-07T02:57:39;8.24;83.79
25945;SHT31;13742;49.306;8.636;2023-04-07T02:58:40;8.20;83.66
25945;SHT31;13742;49.306;8.636;2023-04-07T02:59:40;8.20;83.66
25945;SHT31;13742;49.306;8.636;2023-04-07T03:00:40;8.21;83.76
25945;SHT31;13742;49.306;8.636;2023-04-07T03:01:39;8.24;83.84
25945;SHT31;13742;49.306;8.636;2023-04-07T03:02:39;8.23;84.00
25945;SHT31;13742;49.306;8.636;2023-04-07T03:03:41;8.24;84.43
25945;SHT31;13742;49.306;8.636;2023-04-07T03:04:41;8.24;84.44
25945;SHT31;13742;49.306;8.636;2023-04-07T03:05:39;8.24;84.42
25945;SHT31;13742;49.306;8.636;2023-04-07T03:06:40;8.24;84.25
25945;SHT31;13742;49.306;8.636;2023-04-07T03:07:40;8.21;83.81
25945;SHT31;13742;49.306;8.636;2023-04-07T03:08:41;8.23;83.94
25945;SHT31;13742;49.306;8.636;2023-04-07T03:09:40;8.24;84.12
25945;SHT31;13742;49.306;8.636;2023-04-07T03:10:39;8.23;83.52
25945;SHT31;13742;49.306;8.636;2023-04-07T03:11:40;8.21;84.68
25945;SHT31;13742;49.306;8.636;2023-04-07T03:12:40;8.20;84.36
25945;SHT31;13742;49.306;8.636;2023-04-07T03:13:40;8.23;84.87
25945;SHT31;13742;49.306;8.636;2023-04-07T03:14:39;8.23;84.49
25945;SHT31;13742;49.306;8.636;2023-04-07T03:15:40;8.24;84.17
25945;SHT31;13742;49.306;8.636;2023-04-07T03:16:39;8.24;84.34
25945;SHT31;13742;49.306;8.636;2023-04-07T03:17:40;8.24;84.37
25945;SHT31;13742;49.306;8.636;2023-04-07T03:18:39;8.25;84.47
25945;SHT31;13742;49.306;8.636;2023-04-07T03:19:40;8.21;84.29
25945;SHT31;13742;49.306;8.636;2023-04-07T03:20:42;8.27;84.12
25945;SHT31;13742;49.306;8.636;2023-04-07T03:21:39;8.28;83.98
25945;SHT31;13742;49.306;8.636;2023-04-07T03:22:40;8.27;84.48
25945;SHT31;13742;49.306;8.636;2023-04-07T03:23:40;8.30;84.25
25945;SHT31;13742;49.306;8.636;2023-04-07T03:24:40;8.28;84.01
25945;SHT31;13742;49.306;8.636;2023-04-07T03:25:40;8.30;84.43
25945;SHT31;13742;49.306;8.636;2023-04-07T03:26:40;8.30;84.47
25945;SHT31;13742;49.306;8.636;2023-04-07T03:27:39;8.30;84.07
25945;SHT31;13742;49.306;8.636;2023-04-07T03:28:40;8.28;84.49
25945;SHT31;13742;49.306;8.636;2023-04-07T03:29:40;8.30;84.16
25945;SHT31;13742;49.306;8.636;2023-04-07T03:30:40;8.31;84.05
25945;SHT31;13742;49.306;8.636;2023-04-07T03:31:39;8.27;84.11
25945;SHT31;13742;49.306;8.636;2023-04-07T03:32:39;8.23;83.93
25945;SHT31;13742;49.306;8.636;2023-04-07T03:33:40;8.24;84.00
25945;SHT31;13742;49.306;8.636;2023-04-07T03:34:40;8.23;84.05
25945;SHT31;13742;49.306;8.636;2023-04-07T03:35:41;8.25;83.87
25945;SHT31;13742;49.306;8.636;2023-04-07T03:36:40;8.25;84.21
25945;SHT31;13742;49.306;8.636;2023-04-07T03:37:39;8.25;84.31
25945;SHT31;13742;49.306;8.636;2023-04-07T03:38:39;8.25;84.17
25945;SHT31;13742;49.306;8.636;2023-04-07T03:39:40;8.28;83.74
25945;SHT31;13742;49.306;8.636;2023-04-07T03:40:40;8.23;83.57
25945;SHT31;13742;49.306;8.636;2023-04-07T03:41:40;8.25;83.56
25945;SHT31;13742;49.306;8.636;2023-04-07T03:42:39;8.23;83.59
25945;SHT31;13742;49.306;8.636;2023-04-07T03:43:40;8.23;83.75
25945;SHT31;13742;49.306;8.636;2023-04-07T03:44:39;8.21;83.61
25945;SHT31;13742;49.306;8.636;2023-04-07T03:45:40;8.24;83.69
25945;SHT31;13742;49.306;8.636;2023-04-07T03:46:40;8.21;83.56
25945;SHT31;13742;49.306;8.636;2023-04-07T03:47:40;8.24;83.38
25945;SHT31;13742;49.306;8.636;2023-04-07T03:48:40;8.23;83.64
25945;SHT31;13742;49.306;8.636;2023-04-07T03:49:39;8.23;83.39
25945;SHT31;13742;49.306;8.636;2023-04-07T03:50:40;8.21;83.33
25945;SHT31;13742;49.306;8.636;2023-04-07T03:51:39;8.21;83.33
25945;SHT31;13742;49.306;8.636;2023-04-07T03:52:39;8.21;83.07
25945;SHT31;13742;49.306;8.636;2023-04-07T03:53:39;8.21;82.76
25945;SHT31;13742;49.306;8.636;2023-04-07T03:54:39;8.18;82.75
25945;SHT31;13742;49.306;8.636;2023-04-07T03:55:39;8.20;82.82
25945;SHT31;13742;49.306;8.636;2023-04-07T03:56:40;8.20;83.14
25945;SHT31;13742;49.306;8.636;2023-04-07T03:57:40;8.24;83.48
25945;SHT31;13742;49.306;8.636;2023-04-07T03:58:41;8.23;82.87
25945;SHT31;13742;49.306;8.636;2023-04-07T03:59:40;8.21;83.31
25945;SHT31;13742;49.306;8.636;2023-04-07T04:00:40;8.20;83.28
25945;SHT31;13742;49.306;8.636;2023-04-07T04:01:39;8.20;83.30
25945;SHT31;13742;49.306;8.636;2023-04-07T04:02:39;8.21;83.46
25945;SHT31;13742;49.306;8.636;2023-04-07T04:03:39;8.24;83.45
25945;SHT31;13742;49.306;8.636;2023-04-07T04:04:40;8.23;83.28
25945;SHT31;13742;49.306;8.636;2023-04-07T04:05:40;8.23;83.33
25945;SHT31;13742;49.306;8.636;2023-04-07T04:06:40;8.18;83.49
25945;SHT31;13742;49.306;8.636;2023-04-07T04:07:39;8.21;83.48
25945;SHT31;13742;49.306;8.636;2023-04-07T04:08:39;8.21;83.73
25945;SHT31;13742;49.306;8.636;2023-04-07T04:09:40;8.21;83.89
25945;SHT31;13742;49.306;8.636;2023-04-07T04:10:40;8.20;83.56
25945;SHT31;13742;49.306;8.636;2023-04-07T04:11:39;8.21;83.39
25945;SHT31;13742;49.306;8.636;2023-04-07T04:12:40;8.20;83.23
25945;SHT31;13742;49.306;8.636;2023-04-07T04:13:40;8.17;83.37
25945;SHT31;13742;49.306;8.636;2023-04-07T04:14:40;8.20;83.13
25945;SHT31;13742;49.306;8.636;2023-04-07T04:15:40;8.18;83.18
25945;SHT31;13742;49.306;8.636;2023-04-07T04:16:39;8.16;83.66
25945;SHT31;13742;49.306;8.636;2023-04-07T04:17:40;8.14;83.77
25945;SHT31;13742;49.306;8.636;2023-04-07T04:18:39;8.13;83.53
25945;SHT31;13742;49.306;8.636;2023-04-07T04:19:39;8.14;83.26
25945;SHT31;13742;49.306;8.636;2023-04-07T04:20:39;8.13;82.96
25945;SHT31;13742;49.306;8.636;2023-04-07T04:21:39;8.13;82.74
25945;SHT31;13742;49.306;8.636;2023-04-07T04:22:39;8.16;83.41
25945;SHT31;13742;49.306;8.636;2023-04-07T04:23:39;8.13;83.19
25945;SHT31;13742;49.306;8.636;2023-04-07T04:24:41;8.10;83.53
25945;SHT31;13742;49.306;8.636;2023-04-07T04:25:40;8.13;83.46
25945;SHT31;13742;49.306;8.636;2023-04-07T04:26:39;8.07;83.23
25945;SHT31;13742;49.306;8.636;2023-04-07T04:27:39;8.12;83.46
25945;SHT31;13742;49.306;8.636;2023-04-07T04:28:40;8.12;83.29
25945;SHT31;13742;49.306;8.636;2023-04-07T04:29:40;8.10;83.61
25945;SHT31;13742;49.306;8.636;2023-04-07T04:30:40;8.07;83.06
25945;SHT31;13742;49.306;8.636;2023-04-07T04:31:40;8.07;83.38
25945;SHT31;13742;49.306;8.636;2023-04-07T04:32:39;8.10;82.68
25945;SHT31;13742;49.306;8.636;2023-04-07T04:33:40;8.10;82.50
25945;SHT31;13742;49.306;8.636;2023-04-07T04:34:41;8.07;83.10
25945;SHT31;13742;49.306;8.636;2023-04-07T04:35:40;8.07;83.14
25945;SHT31;13742;49.306;8.636;2023-04-07T04:36:40;8.13;83.01
25945;SHT31;13742;49.306;8.636;2023-04-07T04:37:40;8.13;83.23
25945;SHT31;13742;49.306;8.636;2023-04-07T04:38:40;8.10;83.18
25945;SHT31;13742;49.306;8.636;2023-04-07T04:39:39;8.16;83.82
25945;SHT31;13742;49.306;8.636;2023-04-07T04:40:40;8.13;84.23
25945;SHT31;13742;49.306;8.636;2023-04-07T04:41:39;8.14;83.74
25945;SHT31;13742;49.306;8.636;2023-04-07T04:42:40;8.17;83.82
25945;SHT31;13742;49.306;8.636;2023-04-07T04:43:40;8.16;84.02
25945;SHT31;13742;49.306;8.636;2023-04-07T04:44:39;8.18;83.92
25945;SHT31;13742;49.306;8.636;2023-04-07T04:45:40;8.21;84.00
25945;SHT31;13742;49.306;8.636;2023-04-07T04:46:40;8.18;83.63
25945;SHT31;13742;49.306;8.636;2023-04-07T04:47:40;8.18;83.28
25945;SHT31;13742;49.306;8.636;2023-04-07T04:48:39;8.20;84.55
25945;SHT31;13742;49.306;8.636;2023-04-07T04:49:40;8.20;83.79
25945;SHT31;13742;49.306;8.636;2023-04-07T04:50:41;8.14;83.77
25945;SHT31;13742;49.306;8.636;2023-04-07T04:51:39;8.18;83.82
25945;SHT31;13742;49.306;8.636;2023-04-07T04:52:39;8.18;83.48
25945;SHT31;13742;49.306;8.636;2023-04-07T04:53:39;8.17;84.13
25945;SHT31;13742;49.306;8.636;2023-04-07T04:54:39;8.20;83.87
25945;SHT31;13742;49.306;8.636;2023-04-07T04:55:41;8.18;84.12
25945;SHT31;13742;49.306;8.636;2023-04-07T04:56:39;8.16;83.88
25945;SHT31;13742;49.306;8.636;2023-04-07T04:57:39;8.16;83.66
25945;SHT31;13742;49.306;8.636;2023-04-07T04:58:41;8.18;83.55
25945;SHT31;13742;49.306;8.636;2023-04-07T04:59:39;8.14;83.45
25945;SHT31;13742;49.306;8.636;2023-04-07T05:00:40;8.18;83.16
25945;SHT31;13742;49.306;8.636;2023-04-07T05:01:39;8.16;83.58
25945;SHT31;13742;49.306;8.636;2023-04-07T05:02:39;8.20;84.65
25945;SHT31;13742;49.306;8.636;2023-04-07T05:03:39;8.16;84.34
25945;SHT31;13742;49.306;8.636;2023-04-07T05:04:40;8.20;83.57
25945;SHT31;13742;49.306;8.636;2023-04-07T05:05:39;8.17;83.83
25945;SHT31;13742;49.306;8.636;2023-04-07T05:06:39;8.23;84.05
25945;SHT31;13742;49.306;8.636;2023-04-07T05:07:39;8.14;83.68
25945;SHT31;13742;49.306;8.636;2023-04-07T05:08:39;8.20;83.31
25945;SHT31;13742;49.306;8.636;2023-04-07T05:09:39;8.17;83.42
25945;SHT31;13742;49.306;8.636;2023-04-07T05:10:40;8.16;83.81
25945;SHT31;13742;49.306;8.636;2023-04-07T05:11:40;8.14;83.34
25945;SHT31;13742;49.306;8.636;2023-04-07T05:12:39;8.16;83.43
25945;SHT31;13742;49.306;8.636;2023-04-07T05:13:39;8.17;83.17
25945;SHT31;13742;49.306;8.636;2023-04-07T05:14:40;8.14;82.78
25945;SHT31;13742;49.306;8.636;2023-04-07T05:15:40;8.17;82.75
25945;SHT31;13742;49.306;8.636;2023-04-07T05:16:39;8.13;83.47
25945;SHT31;13742;49.306;8.636;2023-04-07T05:17:39;8.13;83.59
25945;SHT31;13742;49.306;8.636;2023-04-07T05:18:39;8.14;83.71
25945;SHT31;13742;49.306;8.636;2023-04-07T05:19:39;8.16;83.74
25945;SHT31;13742;49.306;8.636;2023-04-07T05:20:40;8.14;83.85
25945;SHT31;13742;49.306;8.636;2023-04-07T05:21:39;8.13;84.09
25945;SHT31;13742;49.306;8.636;2023-04-07T05:22:40;8.12;83.55
25945;SHT31;13742;49.306;8.636;2023-04-07T05:23:40;8.14;83.82
25945;SHT31;13742;49.306;8.636;2023-04-07T05:24:39;8.10;83.85
25945;SHT31;13742;49.306;8.636;2023-04-07T05:25:39;8.13;83.93
25945;SHT31;13742;49.306;8.636;2023-04-07T05:26:39;8.09;83.72
25945;SHT31;13742;49.306;8.636;2023-04-07T05:27:40;8.12;84.26
25945;SHT31;13742;49.306;8.636;2023-04-07T05:28:39;8.10;84.26
25945;SHT31;13742;49.306;8.636;2023-04-07T05:29:39;8.07;84.12
25945;SHT31;13742;49.306;8.636;2023-04-07T05:30:39;8.10;84.16
25945;SHT31;13742;49.306;8.636;2023-04-07T05:31:40;8.09;83.89
25945;SHT31;13742;49.306;8.636;2023-04-07T05:32:39;8.04;84.04
25945;SHT31;13742;49.306;8.636;2023-04-07T05:33:40;8.07;84.34
25945;SHT31;13742;49.306;8.636;2023-04-07T05:34:40;8.06;83.99
25945;SHT31;13742;49.306;8.636;2023-04-07T05:35:39;8.07;83.82
25945;SHT31;13742;49.306;8.636;2023-04-07T05:36:40;8.06;84.40
25945;SHT31;13742;49.306;8.636;2023-04-07T05:37:39;8.04;84.36
25945;SHT31;13742;49.306;8.636;2023-04-07T05:38:40;8.06;84.85
25945;SHT31;13742;49.306;8.636;2023-04-07T05:39:40;8.04;83.76
25945;SHT31;13742;49.306;8.636;2023-04-07T05:40:39;8.06;84.29
25945;SHT31;13742;49.306;8.636;2023-04-07T05:41:40;8.03;84.40
25945;SHT31;13742;49.306;8.636;2023-04-07T05:42:40;8.03;84.28
25945;SHT31;13742;49.306;8.636;2023-04-07T05:43:39;8.02;84.56
25945;SHT31;13742;49.306;8.636;2023-04-07T05:44:40;8.02;84.25
25945;SHT31;13742;49.306;8.636;2023-04-07T05:45:39;8.02;84.05
25945;SHT31;13742;49.306;8.636;2023-04-07T05:46:39;8.02;84.24
25945;SHT31;13742;49.306;8.636;2023-04-07T05:47:39;7.99;84.58
25945;SHT31;13742;49.306;8.636;2023-04-07T05:48:40;7.96;84.79
25945;SHT31;13742;49.306;8.636;2023-04-07T05:49:44;7.94;84.88
25945;SHT31;13742;49.306;8.636;2023-04-07T05:50:40;7.97;84.63
25945;SHT31;13742;49.306;8.636;2023-04-07T05:51:39;8.00;84.72
25945;SHT31;13742;49.306;8.636;2023-04-07T05:52:39;7.99;84.28
25945;SHT31;13742;49.306;8.636;2023-04-07T05:53:39;7.99;84.55
25945;SHT31;13742;49.306;8.636;2023-04-07T05:54:39;7.97;84.53
25945;SHT31;13742;49.306;8.636;2023-04-07T05:55:42;7.97;84.58
25945;SHT31;13742;49.306;8.636;2023-04-07T05:56:39;7.97;84.24
25945;SHT31;13742;49.306;8.636;2023-04-07T05:57:40;7.99;84.29
25945;SHT31;13742;49.306;8.636;2023-04-07T05:58:39;7.99;84.54
25945;SHT31;13742;49.306;8.636;2023-04-07T05:59:40;7.99;85.04
25945;SHT31;13742;49.306;8.636;2023-04-07T06:00:40;8.00;84.49
25945;SHT31;13742;49.306;8.636;2023-04-07T06:01:41;8.02;84.79
25945;SHT31;13742;49.306;8.636;2023-04-07T06:02:40;8.03;84.93
25945;SHT31;13742;49.306;8.636;2023-04-07T06:03:40;8.06;84.57
25945;SHT31;13742;49.306;8.636;2023-04-07T06:04:39;8.06;84.92
25945;SHT31;13742;49.306;8.636;2023-04-07T06:05:45;8.06;84.71
25945;SHT31;13742;49.306;8.636;2023-04-07T06:06:39;8.06;85.38
25945;SHT31;13742;49.306;8.636;2023-04-07T06:07:39;8.06;85.00
25945;SHT31;13742;49.306;8.636;2023-04-07T06:08:39;8.09;84.82
25945;SHT31;13742;49.306;8.636;2023-04-07T06:09:41;8.09;84.87
25945;SHT31;13742;49.306;8.636;2023-04-07T06:10:40;8.10;85.06
25945;SHT31;13742;49.306;8.636;2023-04-07T06:11:39;8.13;84.94
25945;SHT31;13742;49.306;8.636;2023-04-07T06:12:39;8.14;85.07
25945;SHT31;13742;49.306;8.636;2023-04-07T06:13:40;8.14;85.17
25945;SHT31;13742;49.306;8.636;2023-04-07T06:14:39;8.16;85.35
25945;SHT31;13742;49.306;8.636;2023-04-07T06:15:39;8.20;85.22
25945;SHT31;13742;49.306;8.636;2023-04-07T06:16:39;8.21;85.07
25945;SHT31;13742;49.306;8.636;2023-04-07T06:17:39;8.23;84.99
25945;SHT31;13742;49.306;8.636;2023-04-07T06:18:39;8.24;85.07
25945;SHT31;13742;49.306;8.636;2023-04-07T06:19:40;8.25;84.77
25945;SHT31;13742;49.306;8.636;2023-04-07T06:20:39;8.28;85.41
25945;SHT31;13742;49.306;8.636;2023-04-07T06:21:39;8.30;85.17
25945;SHT31;13742;49.306;8.636;2023-04-07T06:22:39;8.31;85.13
25945;SHT31;13742;49.306;8.636;2023-04-07T06:23:39;8.33;84.96
25945;SHT31;13742;49.306;8.636;2023-04-07T06:24:39;8.34;84.93
25945;SHT31;13742;49.306;8.636;2023-04-07T06:25:39;8.37;84.87
25945;SHT31;13742;49.306;8.636;2023-04-07T06:26:40;8.40;84.92
25945;SHT31;13742;49.306;8.636;2023-04-07T06:27:39;8.42;84.79
25945;SHT31;13742;49.306;8.636;2023-04-07T06:28:39;8.44;84.69
25945;SHT31;13742;49.306;8.636;2023-04-07T06:29:40;8.45;84.75
25945;SHT31;13742;49.306;8.636;2023-04-07T06:30:41;8.51;84.72
25945;SHT31;13742;49.306;8.636;2023-04-07T06:31:39;8.49;84.42
25945;SHT31;13742;49.306;8.636;2023-04-07T06:32:39;8.55;84.70